Time;durP1;ratioP1;P1;durP2;ratioP2;P2;SDS_P1;SDS_P2;PMS_P1;PMS_P2;Temp;Humidity;BMP_temperature;BMP_pressure;BME280_temperature;BME280_humidity;BME280_pressure;Samples;Min_cycle;Max_cycle;Signal;HPM_P1;HPM_P2
2023/07/26 00:01:27;;;;;;;9.75;6.40;;;;;;;;;;5095891;28;20228;-77
2023/07/26 00:03:58;;;;;;;14.43;7.80;;;;;;;;;;5095440;28;20280;-77
2023/07/26 00:06:25;;;;;;;12.13;8.20;;;;;;;;;;5094706;28;20203;-77
2023/07/26 00:08:52;;;;;;;9.45;7.70;;;;;;;;;;5094778;28;20227;-77
2023/07/26 00:11:20;;;;;;;12.57;7.27;;;;;;;;;;5094583;28;20708;-77
2023/07/26 00:13:47;;;;;;;10.40;7.63;;;;;;;;;;5095615;28;20591;-77
2023/07/26 00:16:14;;;;;;;8.37;6.83;;;;;;;;;;5095100;28;20550;-77
2023/07/26 00:18:41;;;;;;;10.27;7.65;;;;;;;;;;5094365;28;20224;-77
2023/07/26 00:21:08;;;;;;;12.73;7.38;;;;;;;;;;5094744;28;20599;-77
2023/07/26 00:23:35;;;;;;;10.73;7.57;;;;;;;;;;5094741;28;20692;-77
2023/07/26 00:26:03;;;;;;;8.87;7.43;;;;;;;;;;5094588;28;20196;-77
2023/07/26 00:28:31;;;;;;;8.27;6.97;;;;;;;;;;5094779;28;20238;-77
2023/07/26 00:30:58;;;;;;;12.93;7.77;;;;;;;;;;5094555;28;20200;-77
2023/07/26 00:33:25;;;;;;;10.67;7.20;;;;;;;;;;5094497;28;20223;-77
2023/07/26 00:35:51;;;;;;;9.67;7.07;;;;;;;;;;5094418;28;20283;-77
2023/07/26 00:38:18;;;;;;;10.23;7.75;;;;;;;;;;5093865;28;20195;-78
2023/07/26 00:40:45;;;;;;;9.10;7.47;;;;;;;;;;5094212;28;20316;-77
2023/07/26 00:43:12;;;;;;;9.30;7.47;;;;;;;;;;5094086;28;20196;-76
2023/07/26 00:45:41;;;;;;;11.27;7.87;;;;;;;;;;5093903;28;20249;-77
2023/07/26 00:48:08;;;;;;;9.23;6.60;;;;;;;;;;5094649;28;20577;-77
2023/07/26 00:50:35;;;;;;;11.33;7.17;;;;;;;;;;5094161;28;20702;-77
2023/07/26 00:53:03;;;;;;;17.30;7.90;;;;;;;;;;5094501;28;20207;-77
2023/07/26 00:55:30;;;;;;;22.63;7.80;;;;;;;;;;5093773;28;20582;-77
2023/07/26 00:57:57;;;;;;;43.07;12.03;;;;;;;;;;5094512;28;20253;-77
2023/07/26 01:00:24;;;;;;;11.70;7.77;;;;;;;;;;5094426;28;20665;-77
2023/07/26 01:02:52;;;;;;;15.33;8.40;;;;;;;;;;5093588;28;20718;-77
2023/07/26 01:05:19;;;;;;;16.57;7.73;;;;;;;;;;5093523;28;20203;-77
2023/07/26 01:07:51;;;;;;;9.53;7.20;;;;;;;;;;5093560;28;20203;-77
2023/07/26 01:10:24;;;;;;;14.87;8.60;;;;;;;;;;5093937;28;20226;-77
2023/07/26 01:12:54;;;;;;;10.77;8.13;;;;;;;;;;5092657;28;20283;-77
2023/07/26 01:15:26;;;;;;;9.70;8.03;;;;;;;;;;5095263;28;20191;-76
2023/07/26 01:18:10;;;;;;;13.53;8.40;;;;;;;;;;5113965;28;20667;-77
2023/07/26 01:20:37;;;;;;;10.17;7.43;;;;;;;;;;5113784;28;20223;-77
2023/07/26 01:23:06;;;;;;;9.03;6.97;;;;;;;;;;5113674;28;20256;-77
2023/07/26 01:25:32;;;;;;;9.70;7.60;;;;;;;;;;5114658;28;20200;-77
2023/07/26 01:27:59;;;;;;;10.93;8.50;;;;;;;;;;5113326;28;20277;-77
2023/07/26 01:30:29;;;;;;;9.23;7.60;;;;;;;;;;5113498;28;20200;-77
2023/07/26 01:32:57;;;;;;;9.57;7.57;;;;;;;;;;5111906;28;20211;-77
2023/07/26 01:35:25;;;;;;;10.27;8.33;;;;;;;;;;5113319;28;20693;-77
2023/07/26 01:37:53;;;;;;;9.87;8.13;;;;;;;;;;5113527;28;20571;-77
2023/07/26 01:40:21;;;;;;;9.00;8.10;;;;;;;;;;5102557;28;20680;-77
2023/07/26 01:42:49;;;;;;;12.13;8.37;;;;;;;;;;5093491;28;20249;-76
2023/07/26 01:45:16;;;;;;;9.03;6.80;;;;;;;;;;5093331;28;20258;-77
2023/07/26 01:47:43;;;;;;;16.43;8.40;;;;;;;;;;5092607;28;20203;-77
2023/07/26 01:50:10;;;;;;;13.00;8.00;;;;;;;;;;5112872;28;20192;-77
2023/07/26 01:52:37;;;;;;;9.37;8.03;;;;;;;;;;5111217;28;20219;-77
2023/07/26 01:55:04;;;;;;;11.77;7.77;;;;;;;;;;5112829;28;20191;-77
2023/07/26 01:57:33;;;;;;;13.87;9.23;;;;;;;;;;5112947;28;20204;-77
2023/07/26 02:00:00;;;;;;;9.27;8.00;;;;;;;;;;5112754;28;20210;-77
2023/07/26 02:02:26;;;;;;;9.33;7.87;;;;;;;;;;5112791;28;20226;-79
2023/07/26 02:04:53;;;;;;;17.43;8.33;;;;;;;;;;5113032;28;20556;-76
2023/07/26 02:07:20;;;;;;;8.63;7.67;;;;;;;;;;5111172;28;20595;-77
2023/07/26 02:09:47;;;;;;;14.60;9.03;;;;;;;;;;5112751;28;20287;-76
2023/07/26 02:12:14;;;;;;;11.43;8.17;;;;;;;;;;5112870;28;20202;-76
2023/07/26 02:14:42;;;;;;;9.43;7.43;;;;;;;;;;5112604;28;20202;-76
2023/07/26 02:17:08;;;;;;;16.30;7.63;;;;;;;;;;5112627;28;20201;-76
2023/07/26 02:19:35;;;;;;;10.93;8.27;;;;;;;;;;5112990;28;20203;-76
2023/07/26 02:22:02;;;;;;;9.30;8.00;;;;;;;;;;5112397;28;20309;-76
2023/07/26 02:24:29;;;;;;;13.20;8.03;;;;;;;;;;5112952;28;20203;-76
2023/07/26 02:26:55;;;;;;;9.07;7.53;;;;;;;;;;5112675;28;20719;-76
2023/07/26 02:29:22;;;;;;;9.63;8.47;;;;;;;;;;5112365;28;20195;-77
2023/07/26 02:31:50;;;;;;;12.10;8.73;;;;;;;;;;5110900;28;20188;-76
2023/07/26 02:34:17;;;;;;;11.43;8.00;;;;;;;;;;5102475;28;20192;-76
2023/07/26 02:36:44;;;;;;;11.70;8.90;;;;;;;;;;5110726;28;20184;-77
2023/07/26 02:39:11;;;;;;;11.03;8.03;;;;;;;;;;5110975;28;20191;-77
2023/07/26 02:41:37;;;;;;;9.33;7.87;;;;;;;;;;5111968;28;20226;-77
2023/07/26 02:44:04;;;;;;;8.93;7.67;;;;;;;;;;5112260;28;20692;-77
2023/07/26 02:46:31;;;;;;;11.07;7.70;;;;;;;;;;5112036;28;20203;-78
2023/07/26 02:48:59;;;;;;;9.83;7.60;;;;;;;;;;5112193;28;20202;-77
2023/07/26 02:51:26;;;;;;;15.23;8.97;;;;;;;;;;5112460;28;20243;-77
2023/07/26 02:53:52;;;;;;;11.27;8.80;;;;;;;;;;5113151;28;20195;-78
2023/07/26 02:56:19;;;;;;;11.17;8.60;;;;;;;;;;5112348;28;20604;-78
2023/07/26 02:58:46;;;;;;;11.27;8.77;;;;;;;;;;5112357;28;20196;-77
2023/07/26 03:01:13;;;;;;;11.33;8.90;;;;;;;;;;5094721;28;20227;-78
2023/07/26 03:03:42;;;;;;;12.53;9.13;;;;;;;;;;5103444;28;20211;-77
2023/07/26 03:06:10;;;;;;;10.30;8.37;;;;;;;;;;5097657;28;20294;-77
2023/07/26 03:08:37;;;;;;;14.37;8.80;;;;;;;;;;5115190;28;20226;-78
2023/07/26 03:11:04;;;;;;;9.53;7.87;;;;;;;;;;5095185;28;20200;-78
2023/07/26 03:13:31;;;;;;;8.83;7.93;;;;;;;;;;5095722;28;20204;-78
2023/07/26 03:15:57;;;;;;;8.67;7.73;;;;;;;;;;5095724;28;20678;-78
2023/07/26 03:18:25;;;;;;;18.47;8.77;;;;;;;;;;5095989;28;20200;-78
2023/07/26 03:20:51;;;;;;;12.00;8.33;;;;;;;;;;5112972;28;20573;-78
2023/07/26 03:23:20;;;;;;;10.27;9.07;;;;;;;;;;5115577;28;20661;-78
2023/07/26 03:25:46;;;;;;;13.70;8.80;;;;;;;;;;5098092;28;20222;-78
2023/07/26 03:28:13;;;;;;;12.87;8.47;;;;;;;;;;5094894;28;20192;-78
2023/07/26 03:30:40;;;;;;;19.60;10.23;;;;;;;;;;5095666;28;20621;-78
2023/07/26 03:33:08;;;;;;;15.43;9.17;;;;;;;;;;5101918;28;20202;-78
2023/07/26 03:35:35;;;;;;;12.50;8.60;;;;;;;;;;5107179;28;20200;-77
2023/07/26 03:38:02;;;;;;;13.60;8.77;;;;;;;;;;5101164;28;20275;-77
2023/07/26 03:40:30;;;;;;;16.23;9.40;;;;;;;;;;5099024;28;20199;-78
2023/07/26 03:42:57;;;;;;;14.53;9.03;;;;;;;;;;5116597;28;20223;-78
2023/07/26 03:45:26;;;;;;;14.90;9.13;;;;;;;;;;5115950;28;20203;-78
2023/07/26 03:47:53;;;;;;;12.00;8.30;;;;;;;;;;5115651;28;20196;-77
2023/07/26 03:50:20;;;;;;;10.67;8.80;;;;;;;;;;5115338;28;20207;-79
2023/07/26 03:52:47;;;;;;;9.33;8.40;;;;;;;;;;5113993;28;20207;-78
2023/07/26 03:55:14;;;;;;;11.60;9.30;;;;;;;;;;5115744;28;20191;-83
2023/07/26 03:57:42;;;;;;;11.63;8.10;;;;;;;;;;5115680;28;20195;-82
2023/07/26 04:00:10;;;;;;;13.87;9.70;;;;;;;;;;5115585;28;20202;-82
2023/07/26 04:02:37;;;;;;;13.73;8.43;;;;;;;;;;5115485;28;20223;-82
2023/07/26 04:05:04;;;;;;;16.07;8.17;;;;;;;;;;5094757;28;20200;-80
2023/07/26 04:07:31;;;;;;;15.33;9.27;;;;;;;;;;5093303;28;20207;-82
2023/07/26 04:09:59;;;;;;;13.80;9.37;;;;;;;;;;5094737;28;20208;-78
2023/07/26 04:12:26;;;;;;;14.87;9.50;;;;;;;;;;5099735;28;20742;-81
2023/07/26 04:14:54;;;;;;;15.40;8.73;;;;;;;;;;5115179;28;20798;-78
2023/07/26 04:17:21;;;;;;;30.97;10.20;;;;;;;;;;5113868;28;20203;-77
2023/07/26 04:19:47;;;;;;;12.77;9.37;;;;;;;;;;5114484;28;20202;-79
2023/07/26 04:22:14;;;;;;;14.27;10.30;;;;;;;;;;5114730;28;20223;-78
2023/07/26 04:24:45;;;;;;;16.17;10.43;;;;;;;;;;5114713;28;20579;-78
2023/07/26 04:27:12;;;;;;;22.33;9.70;;;;;;;;;;5114870;28;20202;-79
2023/07/26 04:29:41;;;;;;;25.93;10.57;;;;;;;;;;5114695;28;20202;-80
2023/07/26 04:32:09;;;;;;;11.80;8.23;;;;;;;;;;5114644;28;20199;-79
2023/07/26 04:34:36;;;;;;;19.50;8.73;;;;;;;;;;5114715;28;20196;-80
2023/07/26 04:37:03;;;;;;;41.17;9.97;;;;;;;;;;5114678;28;20203;-78
2023/07/26 04:39:30;;;;;;;11.50;9.33;;;;;;;;;;5115327;28;20195;-79
2023/07/26 04:41:57;;;;;;;12.87;9.20;;;;;;;;;;5114677;28;20223;-79
2023/07/26 04:44:23;;;;;;;12.77;9.17;;;;;;;;;;5112568;28;20195;-79
2023/07/26 04:46:50;;;;;;;11.50;9.20;;;;;;;;;;5114832;28;20211;-79
2023/07/26 04:49:18;;;;;;;16.63;9.00;;;;;;;;;;5114813;28;20204;-79
2023/07/26 04:51:45;;;;;;;11.93;8.40;;;;;;;;;;5112061;28;20223;-79
2023/07/26 04:54:12;;;;;;;12.37;10.00;;;;;;;;;;5114240;28;20252;-78
2023/07/26 04:56:38;;;;;;;14.57;9.73;;;;;;;;;;5113072;28;20256;-79
2023/07/26 04:59:06;;;;;;;15.00;9.97;;;;;;;;;;5114685;28;20206;-78
2023/07/26 05:01:33;;;;;;;20.93;9.93;;;;;;;;;;5113006;28;20223;-78
2023/07/26 05:04:00;;;;;;;11.50;9.07;;;;;;;;;;5114039;28;20688;-79
2023/07/26 05:06:30;;;;;;;10.80;8.93;;;;;;;;;;5114281;28;20219;-79
2023/07/26 05:08:57;;;;;;;11.43;9.50;;;;;;;;;;5100372;28;20577;-79
2023/07/26 05:11:24;;;;;;;15.93;10.17;;;;;;;;;;5093949;28;20196;-78
2023/07/26 05:13:50;;;;;;;21.67;10.03;;;;;;;;;;5093385;28;20667;-79
2023/07/26 05:16:17;;;;;;;11.37;9.77;;;;;;;;;;5093374;28;20228;-79
2023/07/26 05:18:44;;;;;;;12.20;9.23;;;;;;;;;;5094467;28;20207;-79
2023/07/26 05:21:11;;;;;;;14.83;10.63;;;;;;;;;;5093202;28;20208;-79
2023/07/26 05:23:39;;;;;;;14.10;10.90;;;;;;;;;;5093144;28;20224;-79
2023/07/26 05:26:06;;;;;;;18.60;10.63;;;;;;;;;;5093213;28;20257;-78
2023/07/26 05:28:33;;;;;;;17.53;10.13;;;;;;;;;;5093355;28;20192;-79
2023/07/26 05:30:59;;;;;;;15.70;10.50;;;;;;;;;;5093203;28;20207;-79
2023/07/26 05:33:26;;;;;;;18.20;10.10;;;;;;;;;;5093095;28;20199;-79
2023/07/26 05:35:53;;;;;;;22.67;11.27;;;;;;;;;;5093484;28;20275;-79
2023/07/26 05:38:23;;;;;;;29.73;12.45;;;;;;;;;;5093106;28;20200;-79
2023/07/26 05:40:51;;;;;;;27.70;10.73;;;;;;;;;;5103387;28;20577;-79
2023/07/26 05:43:18;;;;;;;35.03;13.27;;;;;;;;;;5092687;28;20596;-79
2023/07/26 05:45:45;;;;;;;31.13;12.30;;;;;;;;;;5091451;28;20256;-79
2023/07/26 05:48:12;;;;;;;12.90;9.95;;;;;;;;;;5097265;28;20191;-79
2023/07/26 05:50:39;;;;;;;11.48;9.57;;;;;;;;;;5111519;28;20229;-81
2023/07/26 05:53:05;;;;;;;13.80;10.00;;;;;;;;;;5106284;28;20196;-79
2023/07/26 05:55:32;;;;;;;12.30;8.35;;;;;;;;;;5103601;28;20200;-79
2023/07/26 05:58:00;;;;;;;12.48;8.15;;;;;;;;;;5111691;28;20565;-79
2023/07/26 06:00:27;;;;;;;16.05;8.45;;;;;;;;;;5098469;28;20208;-79
2023/07/26 06:02:54;;;;;;;11.30;7.90;;;;;;;;;;5105474;28;20228;-78
2023/07/26 06:05:21;;;;;;;9.38;7.25;;;;;;;;;;5091760;28;20200;-79
2023/07/26 06:07:49;;;;;;;9.70;7.00;;;;;;;;;;5105611;28;20191;-79
2023/07/26 06:10:16;;;;;;;14.88;8.07;;;;;;;;;;5111947;28;21027;-79
2023/07/26 06:12:43;;;;;;;15.38;8.13;;;;;;;;;;5112090;28;20203;-79
2023/07/26 06:15:11;;;;;;;15.05;8.77;;;;;;;;;;5111812;28;20195;-79
2023/07/26 06:17:39;;;;;;;33.88;9.65;;;;;;;;;;5092067;28;20257;-78
2023/07/26 06:20:07;;;;;;;17.10;9.00;;;;;;;;;;5101583;28;20206;-78
2023/07/26 06:22:33;;;;;;;10.35;9.18;;;;;;;;;;5098597;28;20232;-78
2023/07/26 06:25:00;;;;;;;14.48;8.70;;;;;;;;;;5097794;28;20254;-78
2023/07/26 06:27:29;;;;;;;17.90;8.35;;;;;;;;;;5103581;28;20659;-78
2023/07/26 06:29:56;;;;;;;13.60;9.48;;;;;;;;;;5106796;28;20196;-79
2023/07/26 06:32:24;;;;;;;17.23;8.93;;;;;;;;;;5111787;28;20619;-79
2023/07/26 06:34:51;;;;;;;16.30;9.55;;;;;;;;;;5110929;28;20203;-78
2023/07/26 06:37:18;;;;;;;12.90;10.13;;;;;;;;;;5111436;28;20662;-78
2023/07/26 06:39:45;;;;;;;13.40;9.82;;;;;;;;;;5098212;28;20261;-78
2023/07/26 06:42:12;;;;;;;11.30;10.02;;;;;;;;;;5101458;28;20255;-79
2023/07/26 06:44:39;;;;;;;9.40;8.45;;;;;;;;;;5091526;28;20228;-78
2023/07/26 06:47:06;;;;;;;11.32;9.32;;;;;;;;;;5091111;28;20250;-79
2023/07/26 06:49:35;;;;;;;9.63;8.60;;;;;;;;;;5094611;28;20198;-78
2023/07/26 06:52:02;;;;;;;12.60;8.30;;;;;;;;;;5100755;28;20259;-79
2023/07/26 06:54:29;;;;;;;11.57;8.50;;;;;;;;;;5108474;28;20191;-77
2023/07/26 06:56:55;;;;;;;15.43;9.73;;;;;;;;;;5111407;28;20196;-78
2023/07/26 06:59:22;;;;;;;12.20;8.65;;;;;;;;;;5111118;28;20211;-78
2023/07/26 07:01:49;;;;;;;10.07;8.80;;;;;;;;;;5100077;28;20192;-78
2023/07/26 07:04:16;;;;;;;15.48;9.80;;;;;;;;;;5104787;28;20223;-79
2023/07/26 07:06:44;;;;;;;14.95;9.00;;;;;;;;;;5099448;28;20253;-78
2023/07/26 07:09:12;;;;;;;13.20;9.85;;;;;;;;;;5110870;28;20661;-79
2023/07/26 07:11:38;;;;;;;17.42;9.25;;;;;;;;;;5099800;28;20196;-78
2023/07/26 07:14:05;;;;;;;19.63;9.63;;;;;;;;;;5108487;28;20214;-78
2023/07/26 07:16:33;;;;;;;13.40;8.77;;;;;;;;;;5099075;28;20211;-79
2023/07/26 07:18:59;;;;;;;14.38;8.75;;;;;;;;;;5108177;28;20211;-79
2023/07/26 07:21:26;;;;;;;11.18;9.32;;;;;;;;;;5099117;28;20196;-79
2023/07/26 07:23:55;;;;;;;12.32;8.68;;;;;;;;;;5093558;28;20235;-79
2023/07/26 07:26:22;;;;;;;13.57;9.52;;;;;;;;;;5098628;28;20196;-79
2023/07/26 07:28:49;;;;;;;14.18;9.60;;;;;;;;;;5104333;28;20192;-81
2023/07/26 07:31:17;;;;;;;11.30;8.65;;;;;;;;;;5102391;28;20196;-79
2023/07/26 07:33:44;;;;;;;12.55;8.38;;;;;;;;;;5097134;28;20202;-79
2023/07/26 07:36:15;;;;;;;13.18;8.07;;;;;;;;;;5098063;28;20200;-79
2023/07/26 07:38:42;;;;;;;15.75;8.30;;;;;;;;;;5090645;28;20205;-79
2023/07/26 07:41:10;;;;;;;10.43;7.85;;;;;;;;;;5103014;28;20614;-79
2023/07/26 07:43:38;;;;;;;13.70;8.15;;;;;;;;;;5097805;28;20288;-79
2023/07/26 07:46:05;;;;;;;10.88;7.40;;;;;;;;;;5096548;28;20200;-79
2023/07/26 07:48:32;;;;;;;12.38;7.80;;;;;;;;;;5093346;28;20223;-79
2023/07/26 07:50:58;;;;;;;12.70;8.27;;;;;;;;;;5095386;28;20597;-79
2023/07/26 07:53:25;;;;;;;13.48;7.53;;;;;;;;;;5114478;28;20614;-79
2023/07/26 07:55:52;;;;;;;10.93;7.88;;;;;;;;;;5114258;28;20678;-79
2023/07/26 07:58:21;;;;;;;10.73;8.45;;;;;;;;;;5114418;28;20200;-79
2023/07/26 08:00:47;;;;;;;9.75;7.50;;;;;;;;;;5114539;28;20244;-79
2023/07/26 08:03:15;;;;;;;14.82;7.80;;;;;;;;;;5103079;28;20268;-79
2023/07/26 08:05:42;;;;;;;15.68;7.25;;;;;;;;;;5110895;28;20196;-79
2023/07/26 08:08:08;;;;;;;10.73;8.55;;;;;;;;;;5103993;28;20195;-79
2023/07/26 08:10:38;;;;;;;16.40;7.80;;;;;;;;;;5100568;28;20242;-79
2023/07/26 08:13:05;;;;;;;13.25;7.57;;;;;;;;;;5114233;28;20248;-79
2023/07/26 08:15:34;;;;;;;10.85;7.43;;;;;;;;;;5109452;28;20201;-79
2023/07/26 08:18:01;;;;;;;14.52;7.88;;;;;;;;;;5105231;28;20192;-79
2023/07/26 08:20:28;;;;;;;9.63;7.40;;;;;;;;;;5114125;28;20200;-79
2023/07/26 08:22:55;;;;;;;12.20;7.90;;;;;;;;;;5101846;28;20227;-78
2023/07/26 08:25:22;;;;;;;12.45;7.38;;;;;;;;;;5112234;28;20203;-79
2023/07/26 08:27:49;;;;;;;6.75;6.10;;;;;;;;;;5101794;28;20203;-79
2023/07/26 08:30:16;;;;;;;12.43;7.38;;;;;;;;;;5098882;28;20646;-79
2023/07/26 08:32:44;;;;;;;12.15;7.15;;;;;;;;;;5100527;28;20200;-79
2023/07/26 08:35:11;;;;;;;11.60;7.50;;;;;;;;;;5111285;28;20196;-79
2023/07/26 08:37:37;;;;;;;13.70;7.25;;;;;;;;;;5113763;28;20195;-79
2023/07/26 08:40:06;;;;;;;12.40;7.68;;;;;;;;;;5093872;28;20618;-79
2023/07/26 08:42:33;;;;;;;10.98;7.05;;;;;;;;;;5105409;28;20696;-78
2023/07/26 08:45:00;;;;;;;9.80;6.50;;;;;;;;;;5107358;28;20196;-78
2023/07/26 08:47:28;;;;;;;9.25;7.05;;;;;;;;;;5092857;28;20211;-79
2023/07/26 08:49:57;;;;;;;9.10;6.35;;;;;;;;;;5106562;28;20569;-78
2023/07/26 08:52:25;;;;;;;12.85;7.85;;;;;;;;;;5107639;28;20223;-79
2023/07/26 08:54:55;;;;;;;10.63;7.07;;;;;;;;;;5106815;28;20200;-78
2023/07/26 08:57:21;;;;;;;12.00;8.05;;;;;;;;;;5094043;28;20726;-78
2023/07/26 08:59:48;;;;;;;14.07;6.82;;;;;;;;;;5113439;28;20195;-78
2023/07/26 09:02:18;;;;;;;9.82;6.35;;;;;;;;;;5103447;28;20203;-79
2023/07/26 09:04:45;;;;;;;13.18;7.72;;;;;;;;;;5106160;28;20642;-78
2023/07/26 09:07:16;;;;;;;8.63;6.53;;;;;;;;;;5106717;28;20196;-79
2023/07/26 09:09:43;;;;;;;16.20;7.53;;;;;;;;;;5092707;28;20199;-79
2023/07/26 09:12:10;;;;;;;12.77;7.03;;;;;;;;;;5106842;28;20208;-79
2023/07/26 09:14:37;;;;;;;9.27;6.18;;;;;;;;;;5101746;28;20184;-79
2023/07/26 09:17:05;;;;;;;16.52;7.85;;;;;;;;;;5111761;28;20680;-79
2023/07/26 09:19:32;;;;;;;10.15;7.35;;;;;;;;;;5092613;28;20188;-78
2023/07/26 09:22:01;;;;;;;9.85;6.97;;;;;;;;;;5108356;28;20236;-78
2023/07/26 09:24:34;;;;;;;13.93;7.32;;;;;;;;;;5102069;28;20242;-79
2023/07/26 09:27:06;;;;;;;9.57;6.20;;;;;;;;;;5108629;28;20195;-78
2023/07/26 09:29:33;;;;;;;14.70;6.32;;;;;;;;;;5113056;28;20589;-78
2023/07/26 09:32:01;;;;;;;13.18;7.55;;;;;;;;;;5093452;28;20630;-79
2023/07/26 09:34:28;;;;;;;13.70;7.40;;;;;;;;;;5103672;28;20572;-79
2023/07/26 09:36:55;;;;;;;12.68;7.00;;;;;;;;;;5106402;28;20663;-79
2023/07/26 09:39:24;;;;;;;11.27;6.78;;;;;;;;;;5104837;28;20689;-79
2023/07/26 09:42:03;;;;;;;12.43;7.82;;;;;;;;;;5112832;28;20203;-78
2023/07/26 09:44:30;;;;;;;12.32;6.97;;;;;;;;;;5098136;28;20232;-78
2023/07/26 09:46:57;;;;;;;14.57;8.38;;;;;;;;;;5112460;28;20677;-79
2023/07/26 09:49:26;;;;;;;8.77;6.80;;;;;;;;;;5109858;28;20199;-79
2023/07/26 09:51:57;;;;;;;8.65;6.90;;;;;;;;;;5101075;28;20231;-78
2023/07/26 09:54:26;;;;;;;8.13;6.57;;;;;;;;;;5108812;28;20199;-79
2023/07/26 09:56:55;;;;;;;10.73;7.82;;;;;;;;;;5101139;28;20662;-79
2023/07/26 09:59:26;;;;;;;13.93;6.90;;;;;;;;;;5096281;28;20196;-79
2023/07/26 10:01:53;;;;;;;13.85;6.72;;;;;;;;;;5112679;28;20220;-78
2023/07/26 10:04:26;;;;;;;11.13;6.72;;;;;;;;;;5107295;28;20620;-79
2023/07/26 10:06:56;;;;;;;13.00;6.57;;;;;;;;;;5103939;28;20203;-78
2023/07/26 10:09:25;;;;;;;12.40;7.15;;;;;;;;;;5104725;28;20192;-79
2023/07/26 10:11:55;;;;;;;14.73;7.75;;;;;;;;;;5105821;28;20191;-79
2023/07/26 10:14:22;;;;;;;8.27;6.78;;;;;;;;;;5094268;28;20196;-79
2023/07/26 10:16:50;;;;;;;9.52;6.80;;;;;;;;;;5097861;28;20210;-78
2023/07/26 10:19:17;;;;;;;15.15;7.28;;;;;;;;;;5091047;28;20203;-79
2023/07/26 10:21:44;;;;;;;12.90;6.97;;;;;;;;;;5091790;28;20196;-79
2023/07/26 10:24:12;;;;;;;9.45;6.60;;;;;;;;;;5091342;28;20220;-79
2023/07/26 10:26:39;;;;;;;10.45;6.70;;;;;;;;;;5104366;28;20200;-79
2023/07/26 10:29:08;;;;;;;9.73;6.78;;;;;;;;;;5102521;28;20200;-79
2023/07/26 10:31:35;;;;;;;9.27;6.97;;;;;;;;;;5091496;28;20212;-78
2023/07/26 10:34:03;;;;;;;11.88;7.45;;;;;;;;;;5091361;28;20628;-78
2023/07/26 10:36:30;;;;;;;9.52;6.60;;;;;;;;;;5107267;28;20573;-79
2023/07/26 10:38:57;;;;;;;11.52;6.45;;;;;;;;;;5111366;28;20199;-78
2023/07/26 10:41:26;;;;;;;10.60;6.95;;;;;;;;;;5096508;28;20204;-79
2023/07/26 10:44:03;;;;;;;13.57;8.10;;;;;;;;;;5101864;28;20227;-78
2023/07/26 10:46:36;;;;;;;10.27;7.30;;;;;;;;;;5090875;28;20202;-78
2023/07/26 10:49:17;;;;;;;15.23;7.75;;;;;;;;;;5091006;28;20198;-79
2023/07/26 10:51:51;;;;;;;14.98;7.18;;;;;;;;;;5098911;28;20402;-78
2023/07/26 10:54:33;;;;;;;14.15;7.25;;;;;;;;;;5109308;28;20259;-79
2023/07/26 10:57:21;;;;;;;9.75;7.05;;;;;;;;;;5101924;28;20546;-78
2023/07/26 11:00:09;;;;;;;11.02;6.95;;;;;;;;;;5098864;28;20198;-79
2023/07/26 11:02:43;;;;;;;10.18;6.93;;;;;;;;;;5093588;28;20193;-79
2023/07/26 11:05:15;;;;;;;13.10;6.80;;;;;;;;;;5090937;28;20219;-81
2023/07/26 11:07:55;;;;;;;17.85;7.20;;;;;;;;;;5097437;28;20256;-79
2023/07/26 11:10:23;;;;;;;9.00;7.10;;;;;;;;;;5099163;28;20203;-79
2023/07/26 11:12:52;;;;;;;13.05;7.13;;;;;;;;;;5103638;28;20214;-79
2023/07/26 11:15:29;;;;;;;18.17;7.15;;;;;;;;;;5093040;28;20578;-77
2023/07/26 11:17:57;;;;;;;11.60;7.00;;;;;;;;;;5111412;28;20199;-78
2023/07/26 11:20:25;;;;;;;10.88;7.22;;;;;;;;;;5092610;28;20275;-78
2023/07/26 11:22:53;;;;;;;8.65;6.15;;;;;;;;;;5106701;28;20203;-77
2023/07/26 11:25:20;;;;;;;17.75;6.72;;;;;;;;;;5110477;28;20224;-78
2023/07/26 11:27:47;;;;;;;13.85;7.82;;;;;;;;;;5106619;28;20203;-78
2023/07/26 11:30:15;;;;;;;12.50;6.72;;;;;;;;;;5097274;28;20219;-78
2023/07/26 11:32:45;;;;;;;14.65;5.72;;;;;;;;;;5107404;28;20206;-78
2023/07/26 11:35:15;;;;;;;11.88;6.35;;;;;;;;;;5114735;28;20203;-79
2023/07/26 11:37:51;;;;;;;19.17;7.07;;;;;;;;;;5101826;28;20208;-78
2023/07/26 11:40:18;;;;;;;16.42;7.25;;;;;;;;;;5102521;28;20285;-78
2023/07/26 11:42:45;;;;;;;11.95;7.18;;;;;;;;;;5114112;28;20290;-78
2023/07/26 11:45:12;;;;;;;19.98;7.32;;;;;;;;;;5102937;28;20717;-78
2023/07/26 11:47:40;;;;;;;11.07;6.32;;;;;;;;;;5098978;28;20666;-77
2023/07/26 11:50:07;;;;;;;11.85;7.35;;;;;;;;;;5114786;28;20222;-79
2023/07/26 11:52:38;;;;;;;13.05;6.53;;;;;;;;;;5114825;28;20208;-78
2023/07/26 11:55:06;;;;;;;10.13;6.97;;;;;;;;;;5106168;28;20231;-78
2023/07/26 11:57:33;;;;;;;13.80;7.38;;;;;;;;;;5108612;28;20199;-78
2023/07/26 12:00:05;;;;;;;17.30;8.23;;;;;;;;;;5114572;28;20202;-78
2023/07/26 12:02:32;;;;;;;13.05;6.43;;;;;;;;;;5102199;28;20238;-77
2023/07/26 12:05:18;;;;;;;16.15;6.85;;;;;;;;;;5104437;28;20227;-78
2023/07/26 12:07:48;;;;;;;20.08;7.60;;;;;;;;;;5107935;28;20227;-78
2023/07/26 12:10:16;;;;;;;12.13;6.72;;;;;;;;;;5107340;28;20204;-78
2023/07/26 12:12:44;;;;;;;17.83;8.10;;;;;;;;;;5093896;28;20196;-77
2023/07/26 12:15:12;;;;;;;13.88;6.45;;;;;;;;;;5093682;28;20204;-81
2023/07/26 12:17:57;;;;;;;13.43;6.57;;;;;;;;;;5101390;28;20187;-78
2023/07/26 12:20:25;;;;;;;12.15;6.82;;;;;;;;;;5101577;28;20200;-77
2023/07/26 12:22:54;;;;;;;20.23;6.68;;;;;;;;;;5103506;28;20209;-77
2023/07/26 12:25:22;;;;;;;12.32;6.60;;;;;;;;;;5093820;28;20211;-78
2023/07/26 12:27:49;;;;;;;17.15;7.93;;;;;;;;;;5104758;28;20691;-78
2023/07/26 12:30:18;;;;;;;12.05;6.85;;;;;;;;;;5113753;28;20200;-78
2023/07/26 12:32:45;;;;;;;10.55;6.95;;;;;;;;;;5113193;28;20223;-77
2023/07/26 12:35:20;;;;;;;12.27;6.55;;;;;;;;;;5113682;28;20635;-78
2023/07/26 12:37:49;;;;;;;14.05;5.68;;;;;;;;;;5113215;28;20199;-78
2023/07/26 12:40:19;;;;;;;13.68;7.03;;;;;;;;;;5095348;28;20231;-78
2023/07/26 12:42:45;;;;;;;16.85;6.80;;;;;;;;;;5107237;28;20218;-78
2023/07/26 12:45:13;;;;;;;14.32;8.02;;;;;;;;;;5108773;28;20220;-79
2023/07/26 12:47:40;;;;;;;14.93;7.30;;;;;;;;;;5093015;28;20227;-78
2023/07/26 12:50:08;;;;;;;13.50;6.32;;;;;;;;;;5093165;28;20197;-77
2023/07/26 12:52:37;;;;;;;12.82;6.43;;;;;;;;;;5108413;28;20258;-78
2023/07/26 12:55:06;;;;;;;11.57;6.53;;;;;;;;;;5104150;28;20289;-77
2023/07/26 12:57:35;;;;;;;10.70;6.60;;;;;;;;;;5106229;28;20257;-77
2023/07/26 13:00:02;;;;;;;14.48;7.38;;;;;;;;;;5093406;28;20196;-78
2023/07/26 13:02:29;;;;;;;14.20;7.28;;;;;;;;;;5105033;28;20196;-78
2023/07/26 13:04:56;;;;;;;11.63;6.75;;;;;;;;;;5101938;28;20219;-77
2023/07/26 13:07:23;;;;;;;15.07;7.03;;;;;;;;;;5108461;28;20192;-78
2023/07/26 13:09:49;;;;;;;11.68;6.40;;;;;;;;;;5093295;28;20196;-78
2023/07/26 13:12:16;;;;;;;12.80;7.03;;;;;;;;;;5092423;28;21103;-78
2023/07/26 13:14:44;;;;;;;9.90;6.50;;;;;;;;;;5103098;28;20673;-77
2023/07/26 13:17:11;;;;;;;15.00;6.47;;;;;;;;;;5112977;28;20195;-78
2023/07/26 13:19:38;;;;;;;11.40;6.88;;;;;;;;;;5113095;28;20211;-77
2023/07/26 13:22:05;;;;;;;16.75;6.43;;;;;;;;;;5094727;28;20206;-78
2023/07/26 13:24:32;;;;;;;17.38;7.65;;;;;;;;;;5104389;28;20701;-78
2023/07/26 13:26:59;;;;;;;9.05;6.05;;;;;;;;;;5100622;28;20200;-78
2023/07/26 13:29:26;;;;;;;12.25;6.72;;;;;;;;;;5112539;28;20203;-78
2023/07/26 13:31:54;;;;;;;13.43;7.38;;;;;;;;;;5099107;28;20199;-78
2023/07/26 13:34:21;;;;;;;13.82;6.55;;;;;;;;;;5101864;28;20199;-77
2023/07/26 13:36:48;;;;;;;15.25;6.25;;;;;;;;;;5098486;28;20225;-77
2023/07/26 13:39:14;;;;;;;10.85;6.80;;;;;;;;;;5099969;28;20203;-81
2023/07/26 13:41:41;;;;;;;15.32;7.07;;;;;;;;;;5111379;28;20191;-78
2023/07/26 13:44:08;;;;;;;14.55;7.15;;;;;;;;;;5099871;28;20254;-79
2023/07/26 13:46:35;;;;;;;8.88;5.05;;;;;;;;;;5094087;28;20219;-77
2023/07/26 13:49:04;;;;;;;17.90;7.00;;;;;;;;;;5092092;28;20635;-78
2023/07/26 13:51:32;;;;;;;12.65;6.25;;;;;;;;;;5112029;28;20296;-78
2023/07/26 13:53:58;;;;;;;13.65;6.55;;;;;;;;;;5112318;28;20195;-78
2023/07/26 13:56:25;;;;;;;10.23;6.28;;;;;;;;;;5092881;28;20201;-77
2023/07/26 13:58:52;;;;;;;14.23;6.95;;;;;;;;;;5091653;28;20697;-77
2023/07/26 14:01:19;;;;;;;12.70;7.13;;;;;;;;;;5092232;28;20211;-78
2023/07/26 14:03:46;;;;;;;10.05;6.63;;;;;;;;;;5091953;28;20203;-77
2023/07/26 14:06:14;;;;;;;13.73;6.70;;;;;;;;;;5098225;28;20314;-78
2023/07/26 14:08:41;;;;;;;13.13;6.18;;;;;;;;;;5097478;28;20204;-77
2023/07/26 14:11:08;;;;;;;20.13;7.43;;;;;;;;;;5099824;28;20203;-78
2023/07/26 14:13:35;;;;;;;10.98;6.32;;;;;;;;;;5111406;28;20662;-78
2023/07/26 14:16:02;;;;;;;14.38;7.43;;;;;;;;;;5099509;28;20261;-77
2023/07/26 14:18:29;;;;;;;16.63;7.30;;;;;;;;;;5096855;28;20200;-78
2023/07/26 14:20:56;;;;;;;13.70;6.50;;;;;;;;;;5108345;28;20203;-77
2023/07/26 14:23:26;;;;;;;17.17;6.05;;;;;;;;;;5101475;28;20227;-78
2023/07/26 14:25:53;;;;;;;12.38;7.00;;;;;;;;;;5103630;28;20220;-78
2023/07/26 14:28:19;;;;;;;17.58;7.25;;;;;;;;;;5106911;28;20207;-78
2023/07/26 14:30:46;;;;;;;15.80;7.25;;;;;;;;;;5111831;28;20192;-78
2023/07/26 14:33:13;;;;;;;12.18;6.45;;;;;;;;;;5098045;28;20283;-77
2023/07/26 14:35:40;;;;;;;11.45;7.47;;;;;;;;;;5111722;28;20195;-78